createdAt,value
2024-04-30T00:00:34.795Z,12.46
2024-04-30T00:01:34.808Z,12.44
2024-04-30T00:02:34.791Z,12.41
2024-04-30T00:03:34.744Z,12.36
2024-04-30T00:04:34.920Z,12.31
2024-04-30T00:05:34.806Z,12.25
2024-04-30T00:06:34.658Z,12.18
2024-04-30T00:07:34.685Z,12.10
2024-04-30T00:08:34.668Z,12.02
2024-04-30T00:09:34.624Z,11.96
2024-04-30T00:10:34.692Z,11.90
2024-04-30T00:11:34.623Z,11.86
2024-04-30T00:12:34.652Z,11.84
2024-04-30T00:13:34.624Z,11.83
2024-04-30T00:14:34.589Z,11.82
2024-04-30T00:15:34.547Z,11.82
2024-04-30T00:16:34.540Z,11.81
2024-04-30T00:17:34.568Z,11.78
2024-04-30T00:18:34.522Z,11.75
2024-04-30T00:19:34.597Z,11.74
2024-04-30T00:20:34.480Z,11.73
2024-04-30T00:21:34.470Z,11.72
2024-04-30T00:22:34.497Z,11.71
2024-04-30T00:23:34.457Z,11.69
2024-04-30T00:24:34.437Z,11.65
2024-04-30T00:25:34.497Z,11.61
2024-04-30T00:26:34.430Z,11.55
2024-04-30T00:27:34.393Z,11.48
2024-04-30T00:28:34.395Z,11.41
2024-04-30T00:29:34.370Z,11.34
2024-04-30T00:30:34.361Z,11.26
2024-04-30T00:31:34.459Z,11.18
2024-04-30T00:32:34.511Z,11.11
2024-04-30T00:33:34.344Z,11.03
2024-04-30T00:34:34.320Z,10.97
2024-04-30T00:35:34.295Z,10.91
2024-04-30T00:36:34.289Z,10.85
2024-04-30T00:37:34.333Z,10.78
2024-04-30T00:38:34.246Z,10.74
2024-04-30T00:39:34.255Z,10.74
2024-04-30T00:40:34.427Z,10.77
2024-04-30T00:41:34.212Z,10.79
2024-04-30T00:42:34.226Z,10.81
2024-04-30T00:43:34.267Z,10.84
2024-04-30T00:44:34.166Z,10.87
2024-04-30T00:45:34.162Z,10.89
2024-04-30T00:46:34.225Z,10.89
2024-04-30T00:47:34.240Z,10.86
2024-04-30T00:48:34.170Z,10.82
2024-04-30T00:49:34.167Z,10.80
2024-04-30T00:50:34.100Z,10.81
2024-04-30T00:51:34.067Z,10.81
2024-04-30T00:52:34.134Z,10.80
2024-04-30T00:53:34.082Z,10.79
2024-04-30T00:54:34.034Z,10.76
2024-04-30T00:55:34.060Z,10.73
2024-04-30T00:56:34.017Z,10.69
2024-04-30T00:57:33.998Z,10.65
2024-04-30T00:58:34.056Z,10.60
2024-04-30T00:59:34.019Z,10.54
2024-04-30T01:00:33.990Z,10.49
2024-04-30T01:01:34.037Z,10.47
2024-04-30T01:02:33.994Z,10.49
2024-04-30T01:03:34.050Z,10.51
2024-04-30T01:04:34.027Z,10.52
2024-04-30T01:05:33.915Z,10.51
2024-04-30T01:06:33.883Z,10.53
2024-04-30T01:07:33.975Z,10.58
2024-04-30T01:08:33.875Z,10.63
2024-04-30T01:09:33.859Z,10.67
2024-04-30T01:10:34.019Z,10.71
2024-04-30T01:11:33.861Z,10.73
2024-04-30T01:12:33.814Z,10.74
2024-04-30T01:13:33.962Z,10.75
2024-04-30T01:14:33.778Z,10.74
2024-04-30T01:15:33.783Z,10.71
2024-04-30T01:16:33.847Z,10.65
2024-04-30T01:17:33.878Z,10.60
2024-04-30T01:18:33.749Z,10.55
2024-04-30T01:19:33.784Z,10.53
2024-04-30T01:20:33.698Z,10.49
2024-04-30T01:21:33.686Z,10.46
2024-04-30T01:22:33.808Z,10.43
2024-04-30T01:23:33.679Z,10.43
2024-04-30T01:24:33.673Z,10.43
2024-04-30T01:25:33.702Z,10.42
2024-04-30T01:26:33.620Z,10.41
2024-04-30T01:27:33.644Z,10.38
2024-04-30T01:28:33.675Z,10.35
2024-04-30T01:29:33.617Z,10.33
2024-04-30T01:30:33.575Z,10.32
2024-04-30T01:31:33.593Z,10.30
2024-04-30T01:32:33.591Z,10.26
2024-04-30T01:33:33.578Z,10.20
2024-04-30T01:34:33.628Z,10.16
2024-04-30T01:35:33.543Z,10.14
2024-04-30T01:36:33.487Z,10.16
2024-04-30T01:37:33.623Z,10.19
2024-04-30T01:38:33.493Z,10.23
2024-04-30T01:39:33.511Z,10.27
2024-04-30T01:40:33.465Z,10.31
2024-04-30T01:41:33.474Z,10.34
2024-04-30T01:42:33.428Z,10.37
2024-04-30T01:43:33.436Z,10.38
2024-04-30T01:44:33.425Z,10.41
2024-04-30T01:45:33.386Z,10.45
2024-04-30T01:46:33.401Z,10.48
2024-04-30T01:47:33.404Z,10.51
2024-04-30T01:48:33.410Z,10.55
2024-04-30T01:49:33.362Z,10.58
2024-04-30T01:50:33.360Z,10.60
2024-04-30T01:51:33.398Z,10.62
2024-04-30T01:52:33.323Z,10.63
2024-04-30T01:53:33.280Z,10.65
2024-04-30T01:54:33.270Z,10.68
2024-04-30T01:55:33.299Z,10.72
2024-04-30T01:56:33.313Z,10.76
2024-04-30T01:57:33.227Z,10.80
2024-04-30T01:58:33.240Z,10.83
2024-04-30T01:59:33.206Z,10.83
2024-04-30T02:00:33.237Z,10.80
2024-04-30T02:01:33.330Z,10.74
2024-04-30T02:02:33.251Z,10.67
2024-04-30T02:03:33.203Z,10.60
2024-04-30T02:04:38.695Z,10.56
2024-04-30T02:05:33.210Z,10.55
2024-04-30T02:06:33.115Z,10.56
2024-04-30T02:07:33.182Z,10.59
2024-04-30T02:08:33.084Z,10.63
2024-04-30T02:09:33.081Z,10.68
2024-04-30T02:10:33.163Z,10.72
2024-04-30T02:11:33.071Z,10.76
2024-04-30T02:12:33.029Z,10.79
2024-04-30T02:13:33.167Z,10.82
2024-04-30T02:14:33.023Z,10.83
2024-04-30T02:15:33.000Z,10.83
2024-04-30T02:16:33.006Z,10.82
2024-04-30T02:17:33.138Z,10.79
2024-04-30T02:18:32.973Z,10.76
2024-04-30T02:19:33.077Z,10.72
2024-04-30T02:20:32.937Z,10.68
2024-04-30T02:21:32.941Z,10.64
2024-04-30T02:22:32.935Z,10.61
2024-04-30T02:23:32.886Z,10.58
2024-04-30T02:24:32.890Z,10.55
2024-04-30T02:25:32.962Z,10.52
2024-04-30T02:26:32.864Z,10.47
2024-04-30T02:27:32.838Z,10.40
2024-04-30T02:28:32.948Z,10.33
2024-04-30T02:29:32.815Z,10.24
2024-04-30T02:30:32.834Z,10.15
2024-04-30T02:31:32.860Z,10.08
2024-04-30T02:32:32.848Z,10.04
2024-04-30T02:33:32.758Z,10.02
2024-04-30T02:34:32.779Z,9.99
2024-04-30T02:35:32.759Z,9.95
2024-04-30T02:36:32.748Z,9.91
2024-04-30T02:37:32.772Z,9.87
2024-04-30T02:38:32.699Z,9.83
2024-04-30T02:39:32.714Z,9.80
2024-04-30T02:40:32.711Z,9.78
2024-04-30T02:41:32.719Z,9.74
2024-04-30T02:42:32.648Z,9.70
2024-04-30T02:43:32.676Z,9.66
2024-04-30T02:44:32.656Z,9.62
2024-04-30T02:45:32.607Z,9.58
2024-04-30T02:46:32.653Z,9.54
2024-04-30T02:47:32.715Z,9.51
2024-04-30T02:48:32.622Z,9.47
2024-04-30T02:49:32.670Z,9.43
2024-04-30T02:50:32.553Z,9.38
2024-04-30T02:51:32.541Z,9.32
2024-04-30T02:52:32.565Z,9.26
2024-04-30T02:53:32.520Z,9.19
2024-04-30T02:54:32.490Z,9.13
2024-04-30T02:55:32.580Z,9.06
2024-04-30T02:56:32.487Z,9.00
2024-04-30T02:57:32.489Z,8.95
2024-04-30T02:58:32.615Z,8.92
2024-04-30T02:59:32.434Z,8.88
2024-04-30T03:00:32.442Z,8.84
2024-04-30T03:01:32.462Z,8.81
2024-04-30T03:02:32.489Z,8.79
2024-04-30T03:03:32.578Z,8.77
2024-04-30T03:04:32.416Z,8.77
2024-04-30T03:05:32.344Z,8.77
2024-04-30T03:06:32.347Z,8.79
2024-04-30T03:07:32.434Z,8.82
2024-04-30T03:08:32.307Z,8.88
2024-04-30T03:09:32.291Z,8.94
2024-04-30T03:10:32.384Z,9.01
2024-04-30T03:11:32.289Z,9.06
2024-04-30T03:12:32.257Z,9.11
2024-04-30T03:13:32.285Z,9.16
2024-04-30T03:14:32.241Z,9.22
2024-04-30T03:15:32.257Z,9.28
2024-04-30T03:16:32.271Z,9.30
2024-04-30T03:17:32.336Z,9.30
2024-04-30T03:18:32.191Z,9.29
2024-04-30T03:19:32.315Z,9.27
2024-04-30T03:20:32.163Z,9.24
2024-04-30T03:21:32.182Z,9.20
2024-04-30T03:22:32.221Z,9.16
2024-04-30T03:23:32.123Z,9.12
2024-04-30T03:24:32.126Z,9.09
2024-04-30T03:25:32.154Z,9.07
2024-04-30T03:26:32.073Z,9.05
2024-04-30T03:27:32.115Z,9.03
2024-04-30T03:28:32.106Z,9.01
2024-04-30T03:29:32.053Z,9.02
2024-04-30T03:30:32.019Z,9.05
2024-04-30T03:31:32.103Z,9.08
2024-04-30T03:32:32.076Z,9.12
2024-04-30T03:33:32.089Z,9.14
2024-04-30T03:34:31.974Z,9.12
2024-04-30T03:35:31.978Z,9.09
2024-04-30T03:36:31.985Z,9.06
2024-04-30T03:37:32.069Z,9.03
2024-04-30T03:38:31.920Z,9.01
2024-04-30T03:39:31.945Z,9.01
2024-04-30T03:40:32.014Z,9.00
2024-04-30T03:41:31.890Z,8.98
2024-04-30T03:42:31.863Z,8.96
2024-04-30T03:43:31.948Z,8.93
2024-04-30T03:44:31.835Z,8.91
2024-04-30T03:45:31.841Z,8.89
2024-04-30T03:46:31.827Z,8.87
2024-04-30T03:47:31.906Z,8.85
2024-04-30T03:48:31.783Z,8.83
2024-04-30T03:49:31.899Z,8.81
2024-04-30T03:50:31.786Z,8.80
2024-04-30T03:51:31.755Z,8.80
2024-04-30T03:52:31.845Z,8.79
2024-04-30T03:53:31.734Z,8.77
2024-04-30T03:54:31.701Z,8.72
2024-04-30T03:55:31.732Z,8.67
2024-04-30T03:56:31.709Z,8.64
2024-04-30T03:57:31.664Z,8.62
2024-04-30T03:58:31.893Z,8.61
2024-04-30T03:59:31.643Z,8.59
2024-04-30T04:00:31.651Z,8.59
2024-04-30T04:01:31.705Z,8.60
2024-04-30T04:02:31.639Z,8.63
2024-04-30T04:03:31.586Z,8.66
2024-04-30T04:04:31.709Z,8.69
2024-04-30T04:05:31.556Z,8.70
2024-04-30T04:06:31.567Z,8.70
2024-04-30T04:07:31.588Z,8.69
2024-04-30T04:08:31.511Z,8.68
2024-04-30T04:09:31.526Z,8.67
2024-04-30T04:10:31.564Z,8.68
2024-04-30T04:11:31.653Z,8.68
2024-04-30T04:12:31.489Z,8.68
2024-04-30T04:13:31.539Z,8.68
2024-04-30T04:14:31.472Z,8.71
2024-04-30T04:15:31.441Z,8.76
2024-04-30T04:16:32.472Z,8.81
2024-04-30T04:17:31.477Z,8.85
2024-04-30T04:18:31.510Z,8.87
2024-04-30T04:19:31.482Z,8.89
2024-04-30T04:20:31.366Z,8.90
2024-04-30T04:21:31.357Z,8.91
2024-04-30T04:22:31.358Z,8.91
2024-04-30T04:23:31.319Z,8.91
2024-04-30T04:24:31.324Z,8.92
2024-04-30T04:25:31.363Z,8.93
2024-04-30T04:26:31.301Z,8.92
2024-04-30T04:27:31.293Z,8.90
2024-04-30T04:28:31.324Z,8.88
2024-04-30T04:29:31.244Z,8.87
2024-04-30T04:30:31.276Z,8.87
2024-04-30T04:31:31.243Z,8.88
2024-04-30T04:32:31.294Z,8.89
2024-04-30T04:33:31.195Z,8.89
2024-04-30T04:34:31.212Z,8.90
2024-04-30T04:35:31.195Z,8.90
2024-04-30T04:36:31.199Z,8.90
2024-04-30T04:37:31.174Z,8.91
2024-04-30T04:38:31.111Z,8.93
2024-04-30T04:39:31.119Z,8.96
2024-04-30T04:40:31.137Z,9.00
2024-04-30T04:41:31.095Z,9.03
2024-04-30T04:42:31.095Z,9.05
2024-04-30T04:43:31.074Z,9.07
2024-04-30T04:44:31.077Z,9.06
2024-04-30T04:45:31.053Z,9.05
2024-04-30T04:46:31.099Z,9.02
2024-04-30T04:47:31.114Z,9.00
2024-04-30T04:48:31.102Z,8.98
2024-04-30T04:49:31.043Z,8.97
2024-04-30T04:50:30.991Z,8.97
2024-04-30T04:51:30.973Z,8.98
2024-04-30T04:52:31.022Z,9.02
2024-04-30T04:53:30.957Z,9.06
2024-04-30T04:54:30.931Z,9.09
2024-04-30T04:55:30.962Z,9.11
2024-04-30T04:56:30.933Z,9.12
2024-04-30T04:57:30.982Z,9.14
2024-04-30T04:58:32.003Z,9.17
2024-04-30T04:59:31.043Z,9.21
2024-04-30T05:00:30.909Z,9.27
2024-04-30T05:01:30.870Z,9.36
2024-04-30T05:02:30.882Z,9.47
2024-04-30T05:03:30.833Z,9.59
2024-04-30T05:04:30.958Z,9.71
2024-04-30T05:05:30.785Z,9.84
2024-04-30T05:06:30.803Z,9.95
2024-04-30T05:07:30.766Z,10.06
2024-04-30T05:08:30.734Z,10.15
2024-04-30T05:09:31.460Z,10.24
2024-04-30T05:10:30.782Z,10.33
2024-04-30T05:11:30.752Z,10.40
2024-04-30T05:12:30.713Z,10.47
2024-04-30T05:13:30.742Z,10.54
2024-04-30T05:14:30.661Z,10.62
2024-04-30T05:15:30.656Z,10.71
2024-04-30T05:16:30.754Z,10.80
2024-04-30T05:17:30.828Z,10.88
2024-04-30T05:18:30.628Z,10.95
2024-04-30T05:19:30.636Z,11.01
2024-04-30T05:20:30.579Z,11.07
2024-04-30T05:21:30.602Z,11.12
2024-04-30T05:22:30.785Z,11.17
2024-04-30T05:23:30.559Z,11.21
2024-04-30T05:24:30.535Z,11.25
2024-04-30T05:25:30.564Z,11.29
2024-04-30T05:26:30.537Z,11.32
2024-04-30T05:27:30.518Z,11.35
2024-04-30T05:28:30.573Z,11.37
2024-04-30T05:29:30.498Z,11.39
2024-04-30T05:30:30.471Z,11.41
2024-04-30T05:31:30.541Z,11.43
2024-04-30T05:32:30.680Z,11.45
2024-04-30T05:33:30.522Z,11.48
2024-04-30T05:34:30.453Z,11.51
2024-04-30T05:35:30.392Z,11.55
2024-04-30T05:36:30.374Z,11.59
2024-04-30T05:37:30.423Z,11.62
2024-04-30T05:38:30.389Z,11.66
2024-04-30T05:39:30.359Z,11.71
2024-04-30T05:40:30.374Z,11.76
2024-04-30T05:41:30.321Z,11.83
2024-04-30T05:42:30.306Z,11.92
2024-04-30T05:43:30.386Z,12.00
2024-04-30T05:44:30.322Z,12.09
2024-04-30T05:45:30.270Z,12.18
2024-04-30T05:46:30.382Z,12.28
2024-04-30T05:47:30.264Z,12.39
2024-04-30T05:48:30.215Z,12.50
2024-04-30T05:49:30.259Z,12.61
2024-04-30T05:50:30.241Z,12.72
2024-04-30T05:51:30.207Z,12.83
2024-04-30T05:52:30.246Z,12.91
2024-04-30T05:53:30.151Z,12.98
2024-04-30T05:54:30.142Z,13.05
2024-04-30T05:55:30.178Z,13.11
2024-04-30T05:56:30.148Z,13.17
2024-04-30T05:57:30.104Z,13.23
2024-04-30T05:58:30.135Z,13.29
2024-04-30T05:59:30.082Z,13.34
2024-04-30T06:00:30.096Z,13.39
2024-04-30T06:01:30.090Z,13.45
2024-04-30T06:02:30.064Z,13.51
2024-04-30T06:03:30.055Z,13.59
2024-04-30T06:04:30.070Z,13.65
2024-04-30T06:05:30.146Z,13.70
2024-04-30T06:06:30.006Z,13.75
2024-04-30T06:07:30.028Z,13.79
2024-04-30T06:08:30.026Z,13.85
2024-04-30T06:09:29.966Z,13.91
2024-04-30T06:10:29.968Z,13.97
2024-04-30T06:11:29.954Z,14.06
2024-04-30T06:12:29.950Z,14.13
2024-04-30T06:13:29.951Z,14.21
2024-04-30T06:14:29.901Z,14.33
2024-04-30T06:15:29.858Z,14.44
2024-04-30T06:16:29.907Z,14.53
2024-04-30T06:17:29.866Z,14.63
2024-04-30T06:18:29.903Z,14.75
2024-04-30T06:19:29.866Z,14.89
2024-04-30T06:20:29.794Z,15.04
2024-04-30T06:21:35.669Z,15.15
2024-04-30T06:22:29.855Z,15.27
2024-04-30T06:23:29.777Z,15.40
2024-04-30T06:24:29.748Z,15.55
2024-04-30T06:25:29.773Z,15.69
2024-04-30T06:26:29.727Z,15.81
2024-04-30T06:27:29.724Z,15.92
2024-04-30T06:28:32.541Z,16.05
2024-04-30T06:29:29.709Z,16.17
2024-04-30T06:30:29.712Z,16.25
2024-04-30T06:31:29.731Z,16.29
2024-04-30T06:32:29.717Z,16.31
2024-04-30T06:33:29.787Z,16.35
2024-04-30T06:34:29.698Z,16.41
2024-04-30T06:35:29.605Z,16.46
2024-04-30T06:36:29.626Z,16.47
2024-04-30T06:37:29.659Z,16.47
2024-04-30T06:38:29.587Z,16.49
2024-04-30T06:39:29.568Z,16.55
2024-04-30T06:40:29.569Z,16.62
2024-04-30T06:41:29.535Z,16.70
2024-04-30T06:42:29.544Z,16.83
2024-04-30T06:43:29.527Z,16.97
2024-04-30T06:44:29.500Z,17.08
2024-04-30T06:45:29.478Z,17.19
2024-04-30T06:46:29.486Z,17.26
2024-04-30T06:47:29.527Z,17.32
2024-04-30T06:48:29.528Z,17.44
2024-04-30T06:49:29.460Z,17.62
2024-04-30T06:50:29.426Z,17.74
2024-04-30T06:51:29.423Z,17.82
2024-04-30T06:52:29.396Z,17.85
2024-04-30T06:53:29.401Z,17.88
2024-04-30T06:54:29.368Z,17.93
2024-04-30T06:55:29.389Z,18.05
2024-04-30T06:56:29.346Z,18.22
2024-04-30T06:57:29.352Z,18.37
2024-04-30T06:58:29.342Z,18.49
2024-04-30T06:59:29.314Z,18.58
2024-04-30T07:00:29.329Z,18.61
2024-04-30T07:01:29.354Z,18.63
2024-04-30T07:02:29.301Z,18.73
2024-04-30T07:03:29.254Z,18.94
2024-04-30T07:04:29.306Z,19.16
2024-04-30T07:05:29.272Z,19.37
2024-04-30T07:06:29.207Z,19.63
2024-04-30T07:07:29.236Z,19.88
2024-04-30T07:08:29.191Z,20.05
2024-04-30T07:09:29.172Z,20.06
2024-04-30T07:10:29.206Z,19.96
2024-04-30T07:11:29.203Z,19.89
2024-04-30T07:12:29.131Z,19.80
2024-04-30T07:13:29.218Z,19.77
2024-04-30T07:14:29.117Z,19.99
2024-04-30T07:15:29.083Z,20.34
2024-04-30T07:16:29.164Z,20.70
2024-04-30T07:17:29.209Z,21.07
2024-04-30T07:18:29.286Z,21.36
2024-04-30T07:19:29.086Z,21.57
2024-04-30T07:20:29.034Z,21.69
2024-04-30T07:21:29.059Z,21.90
2024-04-30T07:22:29.031Z,22.30
2024-04-30T07:23:29.010Z,22.65
2024-04-30T07:24:28.979Z,22.86
2024-04-30T07:25:29.021Z,23.07
2024-04-30T07:26:28.957Z,23.37
2024-04-30T07:27:28.967Z,23.56
2024-04-30T07:28:29.070Z,23.74
2024-04-30T07:29:28.939Z,24.05
2024-04-30T07:30:28.917Z,24.34
2024-04-30T07:31:29.001Z,24.58
2024-04-30T07:32:28.988Z,24.77
2024-04-30T07:33:28.905Z,24.87
2024-04-30T07:34:28.925Z,24.84
2024-04-30T07:35:28.853Z,24.72
2024-04-30T07:36:28.847Z,24.67
2024-04-30T07:37:28.859Z,24.62
2024-04-30T07:38:28.860Z,24.64
2024-04-30T07:39:28.871Z,24.61
2024-04-30T07:40:28.846Z,24.55
2024-04-30T07:41:28.792Z,24.50
2024-04-30T07:42:28.797Z,24.42
2024-04-30T07:43:28.853Z,24.25
2024-04-30T07:44:28.796Z,24.04
2024-04-30T07:45:28.750Z,24.03
2024-04-30T07:46:28.812Z,24.14
2024-04-30T07:47:28.782Z,24.11
2024-04-30T07:48:28.837Z,23.95
2024-04-30T07:49:28.741Z,23.71
2024-04-30T07:50:28.701Z,23.46
2024-04-30T07:51:28.699Z,23.23
2024-04-30T07:52:28.739Z,22.99
2024-04-30T07:53:28.680Z,22.68
2024-04-30T07:54:28.655Z,22.23
2024-04-30T07:55:28.704Z,21.73
2024-04-30T07:56:28.632Z,21.22
2024-04-30T07:57:28.616Z,20.76
2024-04-30T07:58:28.660Z,20.37
2024-04-30T07:59:28.592Z,20.03
2024-04-30T08:00:28.588Z,19.80
2024-04-30T08:01:28.619Z,19.69
2024-04-30T08:02:28.588Z,19.67
2024-04-30T08:03:28.552Z,19.76
2024-04-30T08:04:28.547Z,19.92
2024-04-30T08:05:29.901Z,20.00
2024-04-30T08:06:28.521Z,19.98
2024-04-30T08:07:28.571Z,19.92
2024-04-30T08:08:28.495Z,19.87
2024-04-30T08:09:28.464Z,19.89
2024-04-30T08:10:28.478Z,20.07
2024-04-30T08:11:28.468Z,20.42
2024-04-30T08:12:28.431Z,20.79
2024-04-30T08:13:28.480Z,21.00
2024-04-30T08:14:29.371Z,21.03
2024-04-30T08:15:28.397Z,21.01
2024-04-30T08:16:28.478Z,21.24
2024-04-30T08:17:28.468Z,21.75
2024-04-30T08:18:28.397Z,22.44
2024-04-30T08:19:28.412Z,23.17
2024-04-30T08:20:28.370Z,23.81
2024-04-30T08:21:28.336Z,24.46
2024-04-30T08:22:28.369Z,25.01
2024-04-30T08:23:28.314Z,25.37
2024-04-30T08:24:28.350Z,25.49
2024-04-30T08:25:28.326Z,25.51
2024-04-30T08:26:28.269Z,25.50
2024-04-30T08:27:28.273Z,25.54
2024-04-30T08:28:28.327Z,25.50
2024-04-30T08:29:28.270Z,25.35
2024-04-30T08:30:28.248Z,25.26
2024-04-30T08:31:28.266Z,25.26
2024-04-30T08:32:28.315Z,25.37
2024-04-30T08:33:28.251Z,25.47
2024-04-30T08:34:28.238Z,25.53
2024-04-30T08:35:28.204Z,25.66
2024-04-30T08:36:30.375Z,25.86
2024-04-30T08:37:30.605Z,26.16
2024-04-30T08:38:28.169Z,26.33
2024-04-30T08:39:28.159Z,26.19
2024-04-30T08:40:28.177Z,25.79
2024-04-30T08:41:28.177Z,25.37
2024-04-30T08:42:28.137Z,25.10
2024-04-30T08:43:28.140Z,25.06
2024-04-30T08:44:28.110Z,25.19
2024-04-30T08:45:28.107Z,25.39
2024-04-30T08:46:28.117Z,25.45
2024-04-30T08:47:28.224Z,25.39
2024-04-30T08:48:28.081Z,25.38
2024-04-30T08:49:33.993Z,25.42
2024-04-30T08:50:28.116Z,25.40
2024-04-30T08:51:28.043Z,25.40
2024-04-30T08:52:28.329Z,25.54
2024-04-30T08:53:28.017Z,25.90
2024-04-30T08:54:28.030Z,26.23
2024-04-30T08:55:28.052Z,26.47
2024-04-30T08:56:27.989Z,26.77
2024-04-30T08:57:28.031Z,27.05
2024-04-30T08:58:28.009Z,27.36
2024-04-30T08:59:27.971Z,27.70
2024-04-30T09:00:28.013Z,27.90
2024-04-30T09:01:28.095Z,27.92
2024-04-30T09:02:28.005Z,27.84
2024-04-30T09:03:28.028Z,27.77
2024-04-30T09:04:27.955Z,27.62
2024-04-30T09:05:27.935Z,27.64
2024-04-30T09:06:27.916Z,27.92
2024-04-30T09:07:27.932Z,28.07
2024-04-30T09:08:27.977Z,28.01
2024-04-30T09:09:27.942Z,28.01
2024-04-30T09:10:27.971Z,28.19
2024-04-30T09:11:27.947Z,28.28
2024-04-30T09:12:27.905Z,28.15
2024-04-30T09:13:27.953Z,28.29
2024-04-30T09:14:27.898Z,28.83
2024-04-30T09:15:27.854Z,29.22
2024-04-30T09:16:27.879Z,29.42
2024-04-30T09:17:28.006Z,29.50
2024-04-30T09:18:27.852Z,29.28
2024-04-30T09:19:27.861Z,29.01
2024-04-30T09:20:27.884Z,29.08
2024-04-30T09:21:27.811Z,29.30
2024-04-30T09:22:27.835Z,29.46
2024-04-30T09:23:27.828Z,29.52
2024-04-30T09:24:27.783Z,29.58
2024-04-30T09:25:27.812Z,29.71
2024-04-30T09:26:27.780Z,29.96
2024-04-30T09:27:27.779Z,30.10
2024-04-30T09:28:27.807Z,30.04
2024-04-30T09:29:27.770Z,29.91
2024-04-30T09:30:27.764Z,29.69
2024-04-30T09:31:27.765Z,29.42
2024-04-30T09:32:27.841Z,29.28
2024-04-30T09:33:27.884Z,29.14
2024-04-30T09:34:27.763Z,28.63
2024-04-30T09:35:27.718Z,28.18
2024-04-30T09:36:27.734Z,28.09
2024-04-30T09:37:27.771Z,27.95
2024-04-30T09:38:27.710Z,27.51
2024-04-30T09:39:27.686Z,26.94
2024-04-30T09:40:27.691Z,26.34
2024-04-30T09:41:27.659Z,25.90
2024-04-30T09:42:27.649Z,25.48
2024-04-30T09:43:27.706Z,25.23
2024-04-30T09:44:27.631Z,25.08
2024-04-30T09:45:27.621Z,24.83
2024-04-30T09:46:27.708Z,24.58
2024-04-30T09:47:27.699Z,24.39
2024-04-30T09:48:27.602Z,24.14
2024-04-30T09:49:27.609Z,23.81
2024-04-30T09:50:27.558Z,23.58
2024-04-30T09:51:27.553Z,23.43
2024-04-30T09:52:27.596Z,23.36
2024-04-30T09:53:27.532Z,23.53
2024-04-30T09:54:28.515Z,23.71
2024-04-30T09:55:27.615Z,23.99
2024-04-30T09:56:27.521Z,24.49
2024-04-30T09:57:27.503Z,25.21
2024-04-30T09:58:27.527Z,26.03
2024-04-30T09:59:27.501Z,26.88
2024-04-30T10:00:28.901Z,27.58
2024-04-30T10:01:27.508Z,27.84
2024-04-30T10:02:27.537Z,27.71
2024-04-30T10:03:27.444Z,27.38
2024-04-30T10:04:27.565Z,27.14
2024-04-30T10:05:27.463Z,26.99
2024-04-30T10:06:27.447Z,26.77
2024-04-30T10:07:27.474Z,26.51
2024-04-30T10:08:27.426Z,26.39
2024-04-30T10:09:27.399Z,26.46
2024-04-30T10:10:27.460Z,26.62
2024-04-30T10:11:27.402Z,26.82
2024-04-30T10:12:30.670Z,26.82
2024-04-30T10:13:27.376Z,26.79
2024-04-30T10:14:27.357Z,26.93
2024-04-30T10:15:27.340Z,26.99
2024-04-30T10:16:27.453Z,26.88
2024-04-30T10:17:27.499Z,26.86
2024-04-30T10:18:27.315Z,26.88
2024-04-30T10:19:27.435Z,26.76
2024-04-30T10:20:27.316Z,26.59
2024-04-30T10:21:27.307Z,26.43
2024-04-30T10:22:27.298Z,26.42
2024-04-30T10:23:27.276Z,26.51
2024-04-30T10:24:27.250Z,26.49
2024-04-30T10:25:27.290Z,26.43
2024-04-30T10:26:27.254Z,26.32
2024-04-30T10:27:27.219Z,26.31
2024-04-30T10:28:27.260Z,26.50
2024-04-30T10:29:27.211Z,26.61
2024-04-30T10:30:27.228Z,26.69
2024-04-30T10:31:27.222Z,26.88
2024-04-30T10:32:27.209Z,27.04
2024-04-30T10:33:27.275Z,27.32
2024-04-30T10:34:27.232Z,27.66
2024-04-30T10:35:27.189Z,27.87
2024-04-30T10:36:27.157Z,27.85
2024-04-30T10:37:27.188Z,27.63
2024-04-30T10:38:27.149Z,27.36
2024-04-30T10:39:27.468Z,27.27
2024-04-30T10:40:27.355Z,27.31
2024-04-30T10:41:27.121Z,27.24
2024-04-30T10:42:27.094Z,27.14
2024-04-30T10:43:27.183Z,27.17
2024-04-30T10:44:27.085Z,27.29
2024-04-30T10:45:27.121Z,27.47
2024-04-30T10:46:27.176Z,27.60
2024-04-30T10:47:27.135Z,27.47
2024-04-30T10:48:27.102Z,27.19
2024-04-30T10:49:27.102Z,26.98
2024-04-30T10:50:27.323Z,26.73
2024-04-30T10:51:27.086Z,26.53
2024-04-30T10:52:27.037Z,26.53
2024-04-30T10:53:27.035Z,26.70
2024-04-30T10:54:26.994Z,26.93
2024-04-30T10:55:27.000Z,27.23
2024-04-30T10:56:27.018Z,27.47
2024-04-30T10:57:27.015Z,27.44
2024-04-30T10:58:27.029Z,27.20
2024-04-30T10:59:27.007Z,27.02
2024-04-30T11:00:26.947Z,26.95
2024-04-30T11:01:27.005Z,26.91
2024-04-30T11:02:26.920Z,26.92
2024-04-30T11:03:27.026Z,26.80
2024-04-30T11:04:26.963Z,26.59
2024-04-30T11:05:28.006Z,26.53
2024-04-30T11:06:26.929Z,26.63
2024-04-30T11:07:26.923Z,26.72
2024-04-30T11:08:28.901Z,26.76
2024-04-30T11:09:28.460Z,26.68
2024-04-30T11:10:26.928Z,26.66
2024-04-30T11:11:26.897Z,26.80
2024-04-30T11:12:26.877Z,26.90
2024-04-30T11:13:26.944Z,26.90
2024-04-30T11:14:26.844Z,26.85
2024-04-30T11:15:26.914Z,26.91
2024-04-30T11:16:26.887Z,27.07
2024-04-30T11:17:26.973Z,27.25
2024-04-30T11:18:26.864Z,27.33
2024-04-30T11:19:26.860Z,27.37
2024-04-30T11:20:26.787Z,27.46
2024-04-30T11:21:26.757Z,27.40
2024-04-30T11:22:26.772Z,27.24
2024-04-30T11:23:26.747Z,27.17
2024-04-30T11:24:26.765Z,27.24
2024-04-30T11:25:26.752Z,27.37
2024-04-30T11:26:26.729Z,27.44
2024-04-30T11:27:26.732Z,27.37
2024-04-30T11:28:26.742Z,27.18
2024-04-30T11:29:35.045Z,26.99
2024-04-30T11:30:26.746Z,26.85
2024-04-30T11:31:26.719Z,26.80
2024-04-30T11:32:26.724Z,26.84
2024-04-30T11:33:30.490Z,26.92
2024-04-30T11:34:26.757Z,27.00
2024-04-30T11:35:26.641Z,27.06
2024-04-30T11:36:26.664Z,27.14
2024-04-30T11:37:26.745Z,27.23
2024-04-30T11:38:26.636Z,27.30
2024-04-30T11:39:26.606Z,27.27
2024-04-30T11:40:26.609Z,27.25
2024-04-30T11:41:26.614Z,27.42
2024-04-30T11:42:33.973Z,27.52
2024-04-30T11:43:26.618Z,27.39
2024-04-30T11:44:26.657Z,27.23
2024-04-30T11:45:26.536Z,27.08
2024-04-30T11:46:26.577Z,26.91
2024-04-30T11:47:26.683Z,26.85
2024-04-30T11:48:29.606Z,26.94
2024-04-30T11:49:26.635Z,27.07
2024-04-30T11:50:26.524Z,27.15
2024-04-30T11:51:26.476Z,27.16
2024-04-30T11:52:26.506Z,27.13
2024-04-30T11:53:26.579Z,26.99
2024-04-30T11:54:26.463Z,26.89
2024-04-30T11:55:26.466Z,26.89
2024-04-30T11:56:26.697Z,26.97
2024-04-30T11:57:26.462Z,27.07
2024-04-30T11:58:26.518Z,27.10
2024-04-30T11:59:26.436Z,27.02
2024-04-30T12:00:26.410Z,26.86
2024-04-30T12:01:26.534Z,26.73
2024-04-30T12:02:26.498Z,26.81
2024-04-30T12:03:26.376Z,27.02
2024-04-30T12:04:26.698Z,27.11
2024-04-30T12:05:26.400Z,27.09
2024-04-30T12:06:26.359Z,27.03
2024-04-30T12:07:26.379Z,26.91
2024-04-30T12:08:26.404Z,26.79
2024-04-30T12:09:26.356Z,26.76
2024-04-30T12:10:26.352Z,26.81
2024-04-30T12:11:26.310Z,26.88
2024-04-30T12:12:26.319Z,26.99
2024-04-30T12:13:26.370Z,27.14
2024-04-30T12:14:26.281Z,27.12
2024-04-30T12:15:26.278Z,26.99
2024-04-30T12:16:26.414Z,26.87
2024-04-30T12:17:26.398Z,26.85
2024-04-30T12:18:26.305Z,26.79
2024-04-30T12:19:26.284Z,26.69
2024-04-30T12:20:26.316Z,26.61
2024-04-30T12:21:26.213Z,26.46
2024-04-30T12:22:26.229Z,26.25
2024-04-30T12:23:26.193Z,26.04
2024-04-30T12:24:26.185Z,25.84
2024-04-30T12:25:26.267Z,25.63
2024-04-30T12:26:26.204Z,25.42
2024-04-30T12:27:26.166Z,25.22
2024-04-30T12:28:26.149Z,25.09
2024-04-30T12:29:26.135Z,25.00
2024-04-30T12:30:26.140Z,24.95
2024-04-30T12:31:26.153Z,24.91
2024-04-30T12:32:26.185Z,24.85
2024-04-30T12:33:26.120Z,24.77
2024-04-30T12:34:26.073Z,24.71
2024-04-30T12:35:26.063Z,24.70
2024-04-30T12:36:26.026Z,24.68
2024-04-30T12:37:26.123Z,24.63
2024-04-30T12:38:26.046Z,24.57
2024-04-30T12:39:26.016Z,24.50
2024-04-30T12:40:26.025Z,24.45
2024-04-30T12:41:25.991Z,24.45
2024-04-30T12:42:25.979Z,24.50
2024-04-30T12:43:26.127Z,24.54
2024-04-30T12:44:25.954Z,24.59
2024-04-30T12:45:25.941Z,24.65
2024-04-30T12:46:25.956Z,24.68
2024-04-30T12:47:26.019Z,24.70
2024-04-30T12:48:25.969Z,24.72
2024-04-30T12:49:25.935Z,24.71
2024-04-30T12:50:25.900Z,24.65
2024-04-30T12:51:25.886Z,24.55
2024-04-30T12:52:25.943Z,24.40
2024-04-30T12:53:25.848Z,24.24
2024-04-30T12:54:25.834Z,24.09
2024-04-30T12:55:25.893Z,23.98
2024-04-30T12:56:25.793Z,23.89
2024-04-30T12:57:25.783Z,23.79